Time;durP1;ratioP1;P1;durP2;ratioP2;P2;SDS_P1;SDS_P2;PMS_P1;PMS_P2;Temp;Humidity;BMP_temperature;BMP_pressure;BME280_temperature;BME280_humidity;BME280_pressure;Samples;Min_cycle;Max_cycle;Signal;HPM_P1;HPM_P2
2022/07/01 00:08:51;;;;;;;7.82;7.03;;;;;;;29.64;41.86;99900.16;20235143;28;97677;-75
2022/07/01 00:18:51;;;;;;;7.75;7.00;;;;;;;29.65;41.71;99900.97;20235188;28;96948;-75
2022/07/01 00:28:52;;;;;;;8.00;7.20;;;;;;;29.64;41.60;99891.31;20234064;28;96865;-75
2022/07/01 00:38:52;;;;;;;8.23;6.80;;;;;;;29.63;41.73;99889.66;20231634;28;96863;-76
2022/07/01 00:48:57;;;;;;;8.25;6.45;;;;;;;29.63;41.88;99901.16;20232816;28;96796;-76
2022/07/01 00:58:58;;;;;;;9.00;6.82;;;;;;;29.62;41.89;99888.00;20232682;28;98921;-76
2022/07/01 01:08:59;;;;;;;7.00;6.30;;;;;;;29.63;41.67;99893.16;20240724;28;97891;-75
2022/07/01 01:19:00;;;;;;;6.97;6.30;;;;;;;29.58;41.89;99890.22;20244066;28;96975;-76
2022/07/01 01:29:00;;;;;;;6.55;5.88;;;;;;;29.58;41.81;99903.56;20245490;28;97633;-75
2022/07/01 01:39:09;;;;;;;6.55;5.90;;;;;;;29.60;41.63;99911.38;20243048;28;97203;-76
2022/07/01 01:49:10;;;;;;;6.22;5.63;;;;;;;29.63;41.54;99903.81;20250036;28;96749;-75
2022/07/01 01:59:12;;;;;;;6.82;5.50;;;;;;;29.68;41.57;99895.25;20250901;28;96985;-75
2022/07/01 02:09:13;;;;;;;5.88;5.35;;;;;;;29.66;41.81;99890.13;20249308;28;96845;-76
2022/07/01 02:19:14;;;;;;;6.28;5.68;;;;;;;29.66;41.71;99890.13;20252338;28;97386;-74
2022/07/01 02:29:14;;;;;;;6.28;5.68;;;;;;;29.65;41.78;99892.94;20241881;28;97482;-76
2022/07/01 02:39:15;;;;;;;6.30;5.68;;;;;;;29.61;41.48;99908.50;20240424;28;96811;-76
2022/07/01 02:49:16;;;;;;;5.38;4.88;;;;;;;29.58;41.85;99906.22;20238181;28;97462;-75
2022/07/01 02:59:16;;;;;;;6.03;5.43;;;;;;;29.54;42.06;99921.78;20251744;28;97037;-76
2022/07/01 03:09:16;;;;;;;6.28;4.95;;;;;;;29.52;42.03;99931.78;20238244;28;96921;-76
2022/07/01 03:19:17;;;;;;;5.60;5.10;;;;;;;29.55;41.80;99938.59;20251291;28;96795;-76
2022/07/01 03:29:17;;;;;;;5.93;5.15;;;;;;;29.55;41.97;99943.94;20238644;28;96740;-76
2022/07/01 03:39:18;;;;;;;5.55;4.53;;;;;;;29.51;42.30;99958.66;20237777;28;97885;-77
2022/07/01 03:49:19;;;;;;;5.70;5.05;;;;;;;29.49;42.11;99971.34;20238852;28;97297;-76
2022/07/01 03:59:19;;;;;;;5.13;4.65;;;;;;;29.47;42.10;99995.53;20235748;28;97285;-76
2022/07/01 04:09:20;;;;;;;5.20;4.70;;;;;;;29.49;41.95;100003.34;20235796;28;97015;-76
2022/07/01 04:19:21;;;;;;;6.13;4.50;;;;;;;29.45;42.12;100002.09;20236793;28;97001;-76
2022/07/01 04:29:21;;;;;;;4.85;4.35;;;;;;;29.48;42.13;99993.69;20236759;28;97014;-75
2022/07/01 04:39:22;;;;;;;4.68;4.25;;;;;;;29.51;41.97;99978.16;20234114;28;96959;-76
2022/07/01 04:49:23;;;;;;;4.57;4.18;;;;;;;29.53;42.00;99973.47;20245949;28;96990;-76
2022/07/01 04:59:23;;;;;;;4.55;4.15;;;;;;;29.58;41.73;99972.06;20243269;28;96871;-76
2022/07/01 05:09:23;;;;;;;4.65;4.25;;;;;;;29.59;41.86;99984.41;20242799;28;97406;-76
2022/07/01 05:29:43;;;;;;;4.55;4.15;;;;;;;29.57;42.24;100011.28;20240441;28;97048;-76
2022/07/01 05:39:43;;;;;;;4.85;4.25;;;;;;;29.57;41.92;100008.59;20241018;28;96814;-76
2022/07/01 05:49:44;;;;;;;4.63;4.20;;;;;;;29.57;42.14;100013.94;20238413;28;96942;-76
2022/07/01 05:59:44;;;;;;;5.07;4.57;;;;;;;29.60;42.09;100023.41;20239072;28;96903;-75
2022/07/01 06:09:45;;;;;;;6.80;4.20;;;;;;;29.61;41.87;100031.22;20237353;28;96931;-75
2022/07/01 06:19:45;;;;;;;4.88;3.88;;;;;;;29.62;42.01;100040.91;20253507;28;97830;-76
2022/07/01 06:29:46;;;;;;;3.92;3.63;;;;;;;29.60;42.03;100034.09;20234802;28;96913;-76
2022/07/01 06:39:46;;;;;;;4.22;3.83;;;;;;;29.62;42.30;100040.09;20237287;28;96936;-75
2022/07/01 06:49:47;;;;;;;4.35;3.95;;;;;;;29.60;42.01;100050.09;20236848;28;96834;-75
2022/07/01 06:59:49;;;;;;;4.43;4.03;;;;;;;29.61;42.10;100041.09;20234608;28;96983;-76
2022/07/01 07:09:49;;;;;;;4.00;3.70;;;;;;;29.63;42.23;100044.41;20233444;28;97267;-76
2022/07/01 07:19:50;;;;;;;4.22;3.70;;;;;;;29.62;42.24;100035.56;20231308;28;96859;-76
2022/07/01 07:29:50;;;;;;;4.70;3.60;;;;;;;29.65;42.27;100034.34;20233470;28;96717;-76
2022/07/01 07:39:51;;;;;;;3.80;3.50;;;;;;;29.65;42.13;100031.69;20232247;28;96912;-76
2022/07/01 07:49:51;;;;;;;4.50;4.10;;;;;;;29.65;42.25;100029.88;20232671;28;97203;-76
2022/07/01 07:59:52;;;;;;;4.93;4.35;;;;;;;29.64;42.15;100041.53;20229977;28;97438;-76
2022/07/01 08:09:52;;;;;;;5.45;4.95;;;;;;;29.65;42.01;100040.53;20231649;28;96779;-76
2022/07/01 08:19:53;;;;;;;5.90;5.07;;;;;;;29.66;42.10;100042.19;20241804;28;97713;-76
2022/07/01 08:29:53;;;;;;;5.50;5.00;;;;;;;29.66;42.00;100041.34;20247991;28;96854;-76
2022/07/01 08:39:53;;;;;;;5.03;4.57;;;;;;;29.67;42.22;100040.34;20244957;28;96843;-76
2022/07/01 08:49:54;;;;;;;5.10;4.60;;;;;;;29.68;42.02;100048.16;20245482;28;96933;-76
2022/07/01 09:00:03;;;;;;;5.18;4.70;;;;;;;29.69;42.07;100039.16;20241485;28;96930;-76
2022/07/01 09:10:20;;;;;;;5.40;4.90;;;;;;;29.69;42.34;100036.47;20242371;28;97084;-76
2022/07/01 09:20:33;;;;;;;5.95;4.97;;;;;;;29.70;42.44;100034.66;20240153;28;97005;-76
2022/07/01 09:30:34;;;;;;;5.95;5.15;;;;;;;29.71;42.14;100022.94;20239218;28;97717;-76
2022/07/01 09:40:56;;;;;;;5.05;4.60;;;;;;;29.70;42.25;100030.13;20238807;28;96770;-76
2022/07/01 09:50:57;;;;;;;6.88;4.90;;;;;;;29.70;42.13;100018.66;20240429;28;96894;-76
2022/07/01 10:00:57;;;;;;;6.22;4.60;;;;;;;29.73;42.15;100007.59;20238705;28;96858;-76
2022/07/01 10:11:14;;;;;;;4.78;4.38;;;;;;;29.74;42.29;100008.44;20238284;28;96776;-76
2022/07/01 10:21:34;;;;;;;5.22;4.40;;;;;;;29.75;42.05;99988.72;20237125;28;97490;-76
2022/07/01 10:31:38;;;;;;;4.47;4.03;;;;;;;29.77;41.94;99998.22;20236327;28;96996;-73
2022/07/01 10:41:39;;;;;;;4.40;4.00;;;;;;;29.78;42.04;99980.34;20233932;28;98429;-77
2022/07/01 10:51:47;;;;;;;4.32;3.65;;;;;;;29.81;41.94;99977.28;20240250;28;97477;-75
2022/07/01 11:01:48;;;;;;;5.35;3.97;;;;;;;29.84;42.26;99982.28;20233221;28;96877;-76
2022/07/01 11:11:48;;;;;;;4.40;3.65;;;;;;;29.86;42.24;99967.72;20236530;28;97211;-76
2022/07/01 11:21:50;;;;;;;4.13;3.73;;;;;;;29.91;42.19;99967.22;20250222;28;96734;-75
2022/07/01 11:31:51;;;;;;;3.70;3.40;;;;;;;29.95;41.82;99960.47;20236039;28;97010;-76
2022/07/01 11:41:56;;;;;;;3.50;3.20;;;;;;;30.00;42.03;99931.38;20248528;28;96763;-77
2022/07/01 11:51:59;;;;;;;3.50;3.20;;;;;;;30.06;41.95;99920.97;20233636;28;97297;-76
2022/07/01 12:02:00;;;;;;;3.42;3.10;;;;;;;30.08;41.76;99927.75;20233345;28;96914;-75
2022/07/01 12:12:01;;;;;;;3.20;2.90;;;;;;;30.11;41.63;99913.19;20232856;28;96750;-75
2022/07/01 12:22:06;;;;;;;3.28;2.95;;;;;;;30.14;41.47;99891.47;20226873;28;97040;-75
2022/07/01 12:32:07;;;;;;;3.00;2.80;;;;;;;30.17;41.57;99894.56;20232054;28;96844;-75
2022/07/01 12:42:07;;;;;;;2.85;2.42;;;;;;;30.24;41.68;99877.81;20232081;28;97143;-75
2022/07/01 12:52:23;;;;;;;3.50;3.00;;;;;;;30.29;41.57;99868.19;20227987;28;96932;-76
2022/07/01 13:02:23;;;;;;;2.60;2.40;;;;;;;30.35;41.67;99861.25;20236041;28;98397;-75
2022/07/01 13:12:24;;;;;;;3.08;2.78;;;;;;;30.43;41.83;99857.59;20243944;28;96835;-75
2022/07/01 13:22:24;;;;;;;;;;;;;;;30.48;41.38;99837.31;20242286;28;96812;-75
2022/07/01 13:32:25;;;;;;;2.45;2.25;;;;;;;30.53;41.70;99836.78;20243526;28;97299;-75
2022/07/01 13:42:26;;;;;;;3.38;2.40;;;;;;;30.57;41.65;99830.00;20240151;28;96827;-76
2022/07/01 13:52:30;;;;;;;3.75;2.58;;;;;;;30.61;41.12;99836.59;20239110;28;96930;-76
2022/07/01 14:02:31;;;;;;;3.10;2.80;;;;;;;30.64;41.52;99822.88;20234607;28;96755;-76
2022/07/01 14:12:32;;;;;;;2.20;2.00;;;;;;;30.70;41.49;99807.91;20236725;28;96782;-75
2022/07/01 14:22:32;;;;;;;2.40;2.20;;;;;;;30.74;41.17;99819.03;20241355;28;98046;-77
2022/07/01 14:32:33;;;;;;;;;;;;;;;30.78;41.03;99805.06;20241959;28;97731;-76
2022/07/01 14:42:34;;;;;;;2.45;2.20;;;;;;;30.81;40.94;99798.50;20243317;28;96795;-76
2022/07/01 14:52:35;;;;;;;2.22;1.90;;;;;;;30.84;41.49;99798.09;20235567;28;96980;-75
2022/07/01 15:02:37;;;;;;;1.97;1.83;;;;;;;30.86;41.41;99804.09;20235868;28;96909;-76
2022/07/01 15:12:37;;;;;;;2.28;2.10;;;;;;;30.88;41.30;99810.03;20251146;28;96980;-75
2022/07/01 15:22:38;;;;;;;2.60;2.00;;;;;;;30.89;41.17;99801.00;20232901;28;96752;-76
2022/07/01 15:32:38;;;;;;;3.73;2.10;;;;;;;30.88;41.22;99783.31;20235415;28;100838;-75
2022/07/01 15:42:39;;;;;;;;;;;;;;;30.84;41.02;99791.94;20231863;28;97643;-76
2022/07/01 15:52:45;;;;;;;1.92;1.73;;;;;;;30.85;41.14;99774.84;20232563;28;96943;-76
2022/07/01 16:02:46;;;;;;;1.80;1.70;;;;;;;30.84;41.25;99783.94;20235047;28;96809;-76
2022/07/01 16:12:48;;;;;;;3.17;1.88;;;;;;;30.84;41.49;99774.03;20230493;28;97530;-75
2022/07/01 16:22:49;;;;;;;1.85;1.75;;;;;;;30.83;41.07;99775.06;20231795;28;96719;-76
2022/07/01 16:32:51;;;;;;;1.80;1.70;;;;;;;30.82;41.51;99776.94;20229361;28;96792;-75
2022/07/01 16:42:51;;;;;;;2.25;1.92;;;;;;;30.82;41.09;99782.28;20243797;28;96796;-76
2022/07/01 16:52:54;;;;;;;1.60;1.50;;;;;;;30.81;41.34;99787.81;20246043;28;97488;-76
2022/07/01 17:02:56;;;;;;;2.10;1.90;;;;;;;30.81;40.96;99790.50;20243231;28;96846;-75
2022/07/01 17:12:57;;;;;;;2.63;1.77;;;;;;;30.79;41.26;99797.88;20243190;28;96788;-76
2022/07/01 17:23:02;;;;;;;1.95;1.70;;;;;;;30.76;41.02;99799.09;20236549;28;96803;-75
2022/07/01 17:33:06;;;;;;;3.67;2.00;;;;;;;30.74;41.41;99797.66;20240445;28;98144;-75
2022/07/01 17:43:07;;;;;;;1.83;1.70;;;;;;;30.71;41.47;99800.69;20239516;28;96895;-75
2022/07/01 17:53:08;;;;;;;2.63;1.90;;;;;;;30.69;40.81;99803.56;20237533;28;97007;-75
2022/07/01 18:03:09;;;;;;;2.15;1.95;;;;;;;30.66;41.42;99809.31;20241210;28;96944;-75
2022/07/01 18:13:18;;;;;;;2.08;1.70;;;;;;;30.65;41.22;99818.34;20238097;28;96748;-75
2022/07/01 18:23:30;;;;;;;2.30;2.10;;;;;;;30.62;41.46;99834.78;20235620;28;97365;-75
2022/07/01 18:33:36;;;;;;;2.20;2.00;;;;;;;30.58;41.69;99847.69;20239121;28;96782;-75
2022/07/01 18:43:38;;;;;;;1.90;1.70;;;;;;;30.55;41.31;99869.44;20251800;28;96856;-76
2022/07/01 18:53:38;;;;;;;2.70;2.28;;;;;;;30.53;41.18;99886.69;20235991;28;96904;-75
2022/07/01 19:03:39;;;;;;;;;;;;;;;30.54;41.52;99918.59;20233739;28;97574;-76
2022/07/01 19:13:39;;;;;;;2.10;2.00;;;;;;;30.53;41.39;99929.44;20236168;28;97189;-76
2022/07/01 19:23:39;;;;;;;;;;;;;;;30.53;41.07;99940.13;20235389;28;97430;-76
2022/07/01 19:33:40;;;;;;;;;;;;;;;30.52;41.54;99950.00;20233846;28;96962;-77
2022/07/01 19:43:42;;;;;;;2.95;2.38;;;;;;;30.49;41.54;99961.91;20233792;28;97514;-76
2022/07/01 19:53:43;;;;;;;3.08;2.38;;;;;;;30.44;41.45;99966.94;20230550;28;96983;-76
2022/07/01 20:03:44;;;;;;;3.53;2.78;;;;;;;30.41;41.55;99987.88;20236228;28;97550;-76
2022/07/01 20:13:44;;;;;;;2.90;2.50;;;;;;;30.42;41.51;99984.16;20233481;28;97454;-76
2022/07/01 20:23:45;;;;;;;4.50;2.78;;;;;;;30.43;41.26;100049.94;20236892;28;96875;-75
2022/07/01 20:33:46;;;;;;;3.55;2.83;;;;;;;30.44;41.45;100095.16;20238652;28;97885;-76
2022/07/01 20:43:46;;;;;;;;;;;;;;;30.43;41.19;100136.28;20246663;28;96910;-77
2022/07/01 20:53:46;;;;;;;5.15;4.15;;;;;;;30.42;41.54;100115.91;20231865;28;96873;-76
2022/07/01 21:03:46;;;;;;;;;;;;;;;30.41;41.45;100113.44;20233722;28;97000;-76
2022/07/01 21:13:47;;;;;;;6.93;4.28;;;;;;;30.43;41.27;100106.03;20231992;28;96839;-76
2022/07/01 21:23:47;;;;;;;;;;;;;;;30.44;41.15;100107.69;20233464;28;96840;-74
2022/07/01 21:33:49;;;;;;;;;;;;;;;30.41;41.52;100118.78;20244490;28;97425;-75
2022/07/01 21:43:51;;;;;;;4.72;3.10;;;;;;;30.34;41.39;100146.19;20245451;28;96835;-75
2022/07/01 21:53:53;;;;;;;6.53;3.10;;;;;;;30.37;41.30;100144.19;20242971;28;96790;-76
2022/07/01 22:03:56;;;;;;;4.22;2.90;;;;;;;30.37;41.59;100149.53;20237361;28;96846;-76
2022/07/01 22:14:00;;;;;;;4.65;3.20;;;;;;;30.40;41.03;100146.50;20240693;28;96921;-77
2022/07/01 22:24:04;;;;;;;4.78;2.50;;;;;;;30.40;41.01;100158.00;20238929;28;96962;-77
2022/07/01 22:34:05;;;;;;;3.15;2.78;;;;;;;30.32;41.40;100152.75;20236451;28;97042;-77
2022/07/01 22:44:08;;;;;;;3.42;3.08;;;;;;;30.35;41.47;100193.28;20237500;28;97133;-77
2022/07/01 22:54:19;;;;;;;3.13;2.47;;;;;;;30.32;41.26;100227.53;20240930;28;96765;-77
2022/07/01 23:04:22;;;;;;;4.18;2.70;;;;;;;30.32;41.29;100244.41;20255434;28;96965;-77
2022/07/01 23:24:49;;;;;;;4.43;2.80;;;;;;;30.29;41.38;100359.63;20250714;28;96827;-78
2022/07/01 23:34:51;;;;;;;3.45;2.70;;;;;;;30.30;41.53;100368.47;20251794;28;96942;-77
2022/07/01 23:44:51;;;;;;;3.55;2.40;;;;;;;30.29;41.29;100389.00;20245291;28;96955;-78
2022/07/01 23:54:52;;;;;;;3.53;2.80;;;;;;;30.29;41.12;100399.69;20246689;28;96958;-77
